Moreland, ID (83256)

7:59 AM MST on January 17, 2017 (GMT -0700)
MyIdahoWeather.com | | Change Station

Elev 4534 ft 43.27 °N, 112.52 °W | Updated 11 seconds ago

Partly Cloudy
Partly Cloudy
-7.9 °F
Feels Like -8 °F
N
0.0
Wind Variable Wind from WNW
Gusts 0.0 mph

Today
High -- | Low -- °F
--% Chance of Precip.
Yesterday
High -- | Low -- °F
Precip. -- in
Pressure 30.60 in
Visibility 4.0 miles
Clouds Scattered Clouds 400 ft
Windchill -8 °F
Dew Point -12 °F
Humidity 82%
Rainfall 0.00 in
Snow Depth Not available.
7:57 AM 5:22 PM
Waning Gibbous, 72% visible
METAR KPIH 171453Z 00000KT 4SM BR SCT004 M19/M21 A3030 RMK AO2 SLP360 T11941211 53005
Pressure 30.60 in
Visibility 4.0 miles
Clouds Scattered Clouds 400 ft
Windchill -8 °F
Dew Point -12 °F
Humidity 82%
Rainfall 0.00 in
Snow Depth Not available.
7:57 AM 5:22 PM
Waning Gibbous, 72% visible
METAR KPIH 171453Z 00000KT 4SM BR SCT004 M19/M21 A3030 RMK AO2 SLP360 T11941211 53005

Get Your Daily Forecast Email!

Thanks for signing up!

Be on the lookout for a verification email in your inbox.

You'll start receiving the daily forecast at 8 AM.

×

10-Day Weather Forecast

Almanac

Astronomy

Jan. 17, 2017 Rise Set
Actual Time
Civil Twilight
Nautical Twilight
Astronomical Twilight
Moon
Length of Visible Light
Length of Day
Tomorrow will be .
, % of the Moon is Illuminated

Today's Extremes

State Highs State Lows

Community

WunderPhotos

Upload Photos

1,962,540 photos uploaded!

WunderBlog® & News

Nearby

Air Quality

  Air Quality AQ Index Pollutant
Not available.

Snow Depth

Station Depth Elevation

Earthquake Activity

City Distance Mag. Time & Date
Minimum magnitude displayed is 2.5.

Coastal Water Temperatures

Place Temperature

Stations

Nearby Weather Stations

Station Location Temp. Windchill Dew Point Humidity Wind Precip. Elev Updated Type
                   

Watches & Warnings

There are currently no watches in effect.